Keller, Indiana
Current Conditions -  °F | °C
As of 10:53 AM on Friday 31 Oct 2014 (Local Time) from KHUF Reporting Station
Light Rain Light Rain  
Wind Chill: 32°   Ceiling: 1800
Heat Index: 41°   Visibility: 6mi
Dew Point: 37°   Wind: 20mph
Humidity: 86%   Direction: 330°NNW
Pressure: 30.08"   Gusts: 26mph
Location:  39.3587°N, 87.4056°W
Report Text: KHUF 311453Z 33017G23KT 6SM -RA BR BKN018 BKN028 OVC035 05/03 A3008 RMK AO2 RAB04E19B41 SLP188 P0000 60000 T00500028 50011
Loading
Personal Weather Stations






























Interactive Weather Map
Tropical Storm Tracking
New forecast layout! Learn more

10-Day Weather Forecast

Advertisements
Track Severe Weather on mobile